sensor_id;sensor_type;location;lat;lon;timestamp;temperature;humidity
9861;DHT22;4969;52.304;4.968;2022-12-29T00:01:51;16.51;64.33
9861;DHT22;4969;52.304;4.968;2022-12-29T00:04:18;16.65;64.48
9861;DHT22;4969;52.304;4.968;2022-12-29T00:06:45;16.49;65.34
9861;DHT22;4969;52.304;4.968;2022-12-29T00:09:12;16.27;65.05
9861;DHT22;4969;52.304;4.968;2022-12-29T00:11:40;16.79;64.17
9861;DHT22;4969;52.304;4.968;2022-12-29T00:14:09;16.28;65.92
9861;DHT22;4969;52.304;4.968;2022-12-29T00:16:54;16.62;64.55
9861;DHT22;4969;52.304;4.968;2022-12-29T00:19:21;16.73;64.50
9861;DHT22;4969;52.304;4.968;2022-12-29T00:22:05;16.40;64.24
9861;DHT22;4969;52.304;4.968;2022-12-29T00:24:49;16.38;64.72
9861;DHT22;4969;52.304;4.968;2022-12-29T00:27:34;16.47;65.04
9861;DHT22;4969;52.304;4.968;2022-12-29T00:30:21;16.31;64.93
9861;DHT22;4969;52.304;4.968;2022-12-29T00:33:09;16.36;65.11
9861;DHT22;4969;52.304;4.968;2022-12-29T00:35:57;16.73;64.06
9861;DHT22;4969;52.304;4.968;2022-12-29T00:38:26;16.82;64.34
9861;DHT22;4969;52.304;4.968;2022-12-29T00:41:10;16.52;65.11
9861;DHT22;4969;52.304;4.968;2022-12-29T00:43:54;16.61;65.22
9861;DHT22;4969;52.304;4.968;2022-12-29T00:46:37;16.38;64.33
9861;DHT22;4969;52.304;4.968;2022-12-29T00:49:05;16.82;64.40
9861;DHT22;4969;52.304;4.968;2022-12-29T00:51:49;16.37;64.04
9861;DHT22;4969;52.304;4.968;2022-12-29T00:54:16;16.89;64.17
9861;DHT22;4969;52.304;4.968;2022-12-29T00:56:44;16.49;64.68
9861;DHT22;4969;52.304;4.968;2022-12-29T00:59:11;16.20;66.31
9861;DHT22;4969;52.304;4.968;2022-12-29T01:01:39;16.55;64.33
9861;DHT22;4969;52.304;4.968;2022-12-29T01:04:06;16.61;63.21
9861;DHT22;4969;52.304;4.968;2022-12-29T01:06:33;16.76;64.23
9861;DHT22;4969;52.304;4.968;2022-12-29T01:09:01;16.48;65.23
9861;DHT22;4969;52.304;4.968;2022-12-29T01:11:45;16.30;64.84
9861;DHT22;4969;52.304;4.968;2022-12-29T01:14:12;16.05;65.69
9861;DHT22;4969;52.304;4.968;2022-12-29T01:16:40;16.59;64.03
9861;DHT22;4969;52.304;4.968;2022-12-29T01:19:07;16.62;64.30
9861;DHT22;4969;52.304;4.968;2022-12-29T01:21:33;16.36;65.24
9861;DHT22;4969;52.304;4.968;2022-12-29T01:24:00;16.59;63.99
9861;DHT22;4969;52.304;4.968;2022-12-29T01:26:27;16.31;64.34
9861;DHT22;4969;52.304;4.968;2022-12-29T01:28:53;16.52;65.22
9861;DHT22;4969;52.304;4.968;2022-12-29T01:31:20;16.14;66.89
9861;DHT22;4969;52.304;4.968;2022-12-29T01:33:48;16.02;64.57
9861;DHT22;4969;52.304;4.968;2022-12-29T01:36:17;15.61;66.21
9861;DHT22;4969;52.304;4.968;2022-12-29T01:38:44;15.86;67.24
9861;DHT22;4969;52.304;4.968;2022-12-29T01:41:13;16.26;66.17
9861;DHT22;4969;52.304;4.968;2022-12-29T01:43:41;16.06;66.31
9861;DHT22;4969;52.304;4.968;2022-12-29T01:46:16;15.72;67.39
9861;DHT22;4969;52.304;4.968;2022-12-29T01:48:47;16.44;65.26
9861;DHT22;4969;52.304;4.968;2022-12-29T01:51:15;16.14;65.76
9861;DHT22;4969;52.304;4.968;2022-12-29T01:53:44;16.06;65.18
9861;DHT22;4969;52.304;4.968;2022-12-29T01:56:14;16.00;65.35
9861;DHT22;4969;52.304;4.968;2022-12-29T01:58:45;15.68;66.10
9861;DHT22;4969;52.304;4.968;2022-12-29T02:01:13;15.92;66.25
9861;DHT22;4969;52.304;4.968;2022-12-29T02:03:40;16.08;65.75
9861;DHT22;4969;52.304;4.968;2022-12-29T02:06:11;15.58;67.48
9861;DHT22;4969;52.304;4.968;2022-12-29T02:08:40;15.96;66.41
9861;DHT22;4969;52.304;4.968;2022-12-29T02:11:07;15.94;67.43
9861;DHT22;4969;52.304;4.968;2022-12-29T02:13:34;15.71;66.99
9861;DHT22;4969;52.304;4.968;2022-12-29T02:16:09;16.13;64.49
9861;DHT22;4969;52.304;4.968;2022-12-29T02:18:48;16.10;64.63
9861;DHT22;4969;52.304;4.968;2022-12-29T02:21:51;15.72;67.36
9861;DHT22;4969;52.304;4.968;2022-12-29T02:27:48;15.68;66.43
9861;DHT22;4969;52.304;4.968;2022-12-29T02:30:40;16.00;66.44
9861;DHT22;4969;52.304;4.968;2022-12-29T02:33:22;15.69;66.85
9861;DHT22;4969;52.304;4.968;2022-12-29T02:35:56;15.96;64.45
9861;DHT22;4969;52.304;4.968;2022-12-29T02:38:36;15.24;66.81
9861;DHT22;4969;52.304;4.968;2022-12-29T02:41:12;15.26;68.43
9861;DHT22;4969;52.304;4.968;2022-12-29T02:43:45;15.78;68.03
9861;DHT22;4969;52.304;4.968;2022-12-29T02:46:19;15.96;65.66
9861;DHT22;4969;52.304;4.968;2022-12-29T02:48:54;15.62;66.46
9861;DHT22;4969;52.304;4.968;2022-12-29T02:51:26;15.33;67.03
9861;DHT22;4969;52.304;4.968;2022-12-29T02:53:55;15.37;67.63
9861;DHT22;4969;52.304;4.968;2022-12-29T02:56:48;15.33;65.48
9861;DHT22;4969;52.304;4.968;2022-12-29T02:59:14;15.38;68.16
9861;DHT22;4969;52.304;4.968;2022-12-29T03:02:05;15.48;67.30
9861;DHT22;4969;52.304;4.968;2022-12-29T03:04:55;15.73;67.61
9861;DHT22;4969;52.304;4.968;2022-12-29T03:07:26;15.11;67.61
9861;DHT22;4969;52.304;4.968;2022-12-29T03:10:00;15.44;67.62
9861;DHT22;4969;52.304;4.968;2022-12-29T03:12:31;15.73;65.87
9861;DHT22;4969;52.304;4.968;2022-12-29T03:15:22;15.62;66.38
9861;DHT22;4969;52.304;4.968;2022-12-29T03:18:13;15.47;67.44
9861;DHT22;4969;52.304;4.968;2022-12-29T03:20:51;15.41;66.51
9861;DHT22;4969;52.304;4.968;2022-12-29T03:23:19;15.40;68.12
9861;DHT22;4969;52.304;4.968;2022-12-29T03:25:48;15.33;67.72
9861;DHT22;4969;52.304;4.968;2022-12-29T03:28:19;15.43;68.99
9861;DHT22;4969;52.304;4.968;2022-12-29T03:30:48;15.20;68.02
9861;DHT22;4969;52.304;4.968;2022-12-29T03:33:20;15.17;69.52
9861;DHT22;4969;52.304;4.968;2022-12-29T03:35:48;14.50;70.47
9861;DHT22;4969;52.304;4.968;2022-12-29T03:38:19;14.12;70.23
9861;DHT22;4969;52.304;4.968;2022-12-29T03:40:50;13.92;70.18
9861;DHT22;4969;52.304;4.968;2022-12-29T03:43:18;14.34;66.88
9861;DHT22;4969;52.304;4.968;2022-12-29T03:45:45;14.60;68.83
9861;DHT22;4969;52.304;4.968;2022-12-29T03:48:12;14.47;69.56
9861;DHT22;4969;52.304;4.968;2022-12-29T03:50:40;14.61;67.87
9861;DHT22;4969;52.304;4.968;2022-12-29T03:53:07;14.68;67.10
9861;DHT22;4969;52.304;4.968;2022-12-29T03:55:33;15.51;68.03
9861;DHT22;4969;52.304;4.968;2022-12-29T03:58:00;15.37;63.81
9861;DHT22;4969;52.304;4.968;2022-12-29T04:00:26;15.41;66.55
9861;DHT22;4969;52.304;4.968;2022-12-29T04:02:53;15.37;65.30
9861;DHT22;4969;52.304;4.968;2022-12-29T04:05:20;15.59;66.37
9861;DHT22;4969;52.304;4.968;2022-12-29T04:07:48;15.31;66.67
9861;DHT22;4969;52.304;4.968;2022-12-29T04:10:15;15.33;67.64
9861;DHT22;4969;52.304;4.968;2022-12-29T04:12:41;15.54;67.52
9861;DHT22;4969;52.304;4.968;2022-12-29T04:15:09;15.44;63.80
9861;DHT22;4969;52.304;4.968;2022-12-29T04:17:35;15.55;68.16
9861;DHT22;4969;52.304;4.968;2022-12-29T04:20:03;15.44;67.04
9861;DHT22;4969;52.304;4.968;2022-12-29T04:22:43;15.38;65.14
9861;DHT22;4969;52.304;4.968;2022-12-29T04:25:11;15.40;66.88
9861;DHT22;4969;52.304;4.968;2022-12-29T04:27:38;15.55;65.78
9861;DHT22;4969;52.304;4.968;2022-12-29T04:30:05;15.65;65.98
9861;DHT22;4969;52.304;4.968;2022-12-29T04:32:32;15.43;65.05
9861;DHT22;4969;52.304;4.968;2022-12-29T04:34:59;15.93;63.69
9861;DHT22;4969;52.304;4.968;2022-12-29T04:37:25;15.50;66.83
9861;DHT22;4969;52.304;4.968;2022-12-29T04:39:52;15.41;67.91
9861;DHT22;4969;52.304;4.968;2022-12-29T04:42:20;15.13;66.65
9861;DHT22;4969;52.304;4.968;2022-12-29T04:44:46;15.24;64.04
9861;DHT22;4969;52.304;4.968;2022-12-29T04:47:13;15.51;65.68
9861;DHT22;4969;52.304;4.968;2022-12-29T04:49:40;15.09;62.76
9861;DHT22;4969;52.304;4.968;2022-12-29T04:52:06;14.47;66.24
9861;DHT22;4969;52.304;4.968;2022-12-29T04:54:33;14.09;67.21
9861;DHT22;4969;52.304;4.968;2022-12-29T04:57:00;14.03;65.11
9861;DHT22;4969;52.304;4.968;2022-12-29T04:59:28;14.14;67.55
9861;DHT22;4969;52.304;4.968;2022-12-29T05:01:54;14.58;66.20
9861;DHT22;4969;52.304;4.968;2022-12-29T05:04:21;14.79;66.46
9861;DHT22;4969;52.304;4.968;2022-12-29T05:06:48;14.57;64.66
9861;DHT22;4969;52.304;4.968;2022-12-29T05:09:14;14.09;67.64
9861;DHT22;4969;52.304;4.968;2022-12-29T05:11:41;14.64;68.18
9861;DHT22;4969;52.304;4.968;2022-12-29T05:14:08;15.18;67.82
9861;DHT22;4969;52.304;4.968;2022-12-29T05:16:35;14.54;65.91
9861;DHT22;4969;52.304;4.968;2022-12-29T05:19:02;15.18;67.14
9861;DHT22;4969;52.304;4.968;2022-12-29T05:21:29;15.06;66.91
9861;DHT22;4969;52.304;4.968;2022-12-29T05:23:55;15.02;65.49
9861;DHT22;4969;52.304;4.968;2022-12-29T05:26:22;14.41;69.06
9861;DHT22;4969;52.304;4.968;2022-12-29T05:28:49;14.75;69.01
9861;DHT22;4969;52.304;4.968;2022-12-29T05:31:15;15.43;66.84
9861;DHT22;4969;52.304;4.968;2022-12-29T05:33:43;15.14;67.53
9861;DHT22;4969;52.304;4.968;2022-12-29T05:36:10;15.23;64.39
9861;DHT22;4969;52.304;4.968;2022-12-29T05:38:37;15.54;65.04
9861;DHT22;4969;52.304;4.968;2022-12-29T05:41:04;14.92;65.89
9861;DHT22;4969;52.304;4.968;2022-12-29T05:43:30;14.90;67.25
9861;DHT22;4969;52.304;4.968;2022-12-29T05:45:57;15.24;66.47
9861;DHT22;4969;52.304;4.968;2022-12-29T05:48:24;15.02;67.55
9861;DHT22;4969;52.304;4.968;2022-12-29T05:50:52;14.54;68.61
9861;DHT22;4969;52.304;4.968;2022-12-29T05:53:18;14.82;68.33
9861;DHT22;4969;52.304;4.968;2022-12-29T05:55:46;14.44;65.86
9861;DHT22;4969;52.304;4.968;2022-12-29T05:58:13;14.44;68.73
9861;DHT22;4969;52.304;4.968;2022-12-29T06:00:40;14.69;65.96
9861;DHT22;4969;52.304;4.968;2022-12-29T06:03:06;14.61;68.41
9861;DHT22;4969;52.304;4.968;2022-12-29T06:05:33;14.90;69.65
9861;DHT22;4969;52.304;4.968;2022-12-29T06:08:01;14.89;68.53
9861;DHT22;4969;52.304;4.968;2022-12-29T06:10:27;14.85;68.48
9861;DHT22;4969;52.304;4.968;2022-12-29T06:12:54;14.54;69.64
9861;DHT22;4969;52.304;4.968;2022-12-29T06:15:21;14.48;69.89
9861;DHT22;4969;52.304;4.968;2022-12-29T06:17:47;15.00;67.15
9861;DHT22;4969;52.304;4.968;2022-12-29T06:20:14;14.73;65.64
9861;DHT22;4969;52.304;4.968;2022-12-29T06:22:40;14.68;69.92
9861;DHT22;4969;52.304;4.968;2022-12-29T06:25:09;14.93;66.09
9861;DHT22;4969;52.304;4.968;2022-12-29T06:27:35;14.44;66.22
9861;DHT22;4969;52.304;4.968;2022-12-29T06:30:02;14.13;67.05
9861;DHT22;4969;52.304;4.968;2022-12-29T06:32:29;14.14;67.21
9861;DHT22;4969;52.304;4.968;2022-12-29T06:34:56;14.10;66.99
9861;DHT22;4969;52.304;4.968;2022-12-29T06:37:22;14.31;70.36
9861;DHT22;4969;52.304;4.968;2022-12-29T06:39:49;14.68;69.31
9861;DHT22;4969;52.304;4.968;2022-12-29T06:42:17;15.03;67.39
9861;DHT22;4969;52.304;4.968;2022-12-29T06:44:44;14.78;66.14
9861;DHT22;4969;52.304;4.968;2022-12-29T06:47:10;14.51;66.52
9861;DHT22;4969;52.304;4.968;2022-12-29T06:49:37;14.55;70.35
9861;DHT22;4969;52.304;4.968;2022-12-29T06:52:04;14.47;68.32
9861;DHT22;4969;52.304;4.968;2022-12-29T06:54:31;14.38;68.61
9861;DHT22;4969;52.304;4.968;2022-12-29T06:56:58;14.35;70.27
9861;DHT22;4969;52.304;4.968;2022-12-29T06:59:26;15.06;68.67
9861;DHT22;4969;52.304;4.968;2022-12-29T07:01:53;15.37;65.53
9861;DHT22;4969;52.304;4.968;2022-12-29T07:04:19;15.04;65.64
9861;DHT22;4969;52.304;4.968;2022-12-29T07:06:46;14.38;65.08
9861;DHT22;4969;52.304;4.968;2022-12-29T07:09:12;14.79;69.83
9861;DHT22;4969;52.304;4.968;2022-12-29T07:11:39;14.71;63.26
9861;DHT22;4969;52.304;4.968;2022-12-29T07:14:06;15.00;64.98
9861;DHT22;4969;52.304;4.968;2022-12-29T07:16:33;14.14;67.58
9861;DHT22;4969;52.304;4.968;2022-12-29T07:19:00;13.82;66.14
9861;DHT22;4969;52.304;4.968;2022-12-29T07:21:27;14.06;67.29
9861;DHT22;4969;52.304;4.968;2022-12-29T07:23:53;13.89;68.06
9861;DHT22;4969;52.304;4.968;2022-12-29T07:26:20;14.75;67.14
9861;DHT22;4969;52.304;4.968;2022-12-29T07:28:47;14.68;66.72
9861;DHT22;4969;52.304;4.968;2022-12-29T07:31:15;14.67;60.83
9861;DHT22;4969;52.304;4.968;2022-12-29T07:33:43;14.76;65.26
9861;DHT22;4969;52.304;4.968;2022-12-29T07:36:10;14.05;69.48
9861;DHT22;4969;52.304;4.968;2022-12-29T07:38:36;14.38;69.23
9861;DHT22;4969;52.304;4.968;2022-12-29T07:41:03;14.58;64.86
9861;DHT22;4969;52.304;4.968;2022-12-29T07:43:30;14.27;66.04
9861;DHT22;4969;52.304;4.968;2022-12-29T07:45:57;14.40;63.71
9861;DHT22;4969;52.304;4.968;2022-12-29T07:48:23;14.55;69.56
9861;DHT22;4969;52.304;4.968;2022-12-29T07:50:52;14.45;65.47
9861;DHT22;4969;52.304;4.968;2022-12-29T07:53:18;15.34;67.21
9861;DHT22;4969;52.304;4.968;2022-12-29T07:55:45;14.92;66.81
9861;DHT22;4969;52.304;4.968;2022-12-29T07:58:12;14.17;69.01
9861;DHT22;4969;52.304;4.968;2022-12-29T08:00:39;14.65;68.06
9861;DHT22;4969;52.304;4.968;2022-12-29T08:03:05;14.47;64.04
9861;DHT22;4969;52.304;4.968;2022-12-29T08:05:32;14.52;69.83
9861;DHT22;4969;52.304;4.968;2022-12-29T08:08:01;14.38;65.33
9861;DHT22;4969;52.304;4.968;2022-12-29T08:10:28;14.27;65.37
9861;DHT22;4969;52.304;4.968;2022-12-29T08:12:54;13.79;68.24
9861;DHT22;4969;52.304;4.968;2022-12-29T08:15:21;14.37;64.43
9861;DHT22;4969;52.304;4.968;2022-12-29T08:17:47;14.21;69.26
9861;DHT22;4969;52.304;4.968;2022-12-29T08:20:14;14.06;68.38
9861;DHT22;4969;52.304;4.968;2022-12-29T08:22:41;14.34;70.26
9861;DHT22;4969;52.304;4.968;2022-12-29T08:25:09;14.18;65.48
9861;DHT22;4969;52.304;4.968;2022-12-29T08:27:36;14.12;69.36
9861;DHT22;4969;52.304;4.968;2022-12-29T08:30:03;14.42;68.54
9861;DHT22;4969;52.304;4.968;2022-12-29T08:32:30;14.28;69.14
9861;DHT22;4969;52.304;4.968;2022-12-29T08:34:57;13.63;68.35
9861;DHT22;4969;52.304;4.968;2022-12-29T08:37:23;14.41;71.23
9861;DHT22;4969;52.304;4.968;2022-12-29T08:39:50;14.02;67.85
9861;DHT22;4969;52.304;4.968;2022-12-29T08:42:18;14.28;68.07
9861;DHT22;4969;52.304;4.968;2022-12-29T08:44:44;13.96;69.35
9861;DHT22;4969;52.304;4.968;2022-12-29T08:47:11;14.73;66.66
9861;DHT22;4969;52.304;4.968;2022-12-29T08:49:38;14.83;67.46
9861;DHT22;4969;52.304;4.968;2022-12-29T08:52:04;13.71;67.58
9861;DHT22;4969;52.304;4.968;2022-12-29T08:54:31;13.95;69.38
9861;DHT22;4969;52.304;4.968;2022-12-29T08:56:58;13.24;70.69
9861;DHT22;4969;52.304;4.968;2022-12-29T08:59:26;13.57;72.22
9861;DHT22;4969;52.304;4.968;2022-12-29T09:01:52;14.18;70.42
9861;DHT22;4969;52.304;4.968;2022-12-29T09:04:19;14.60;67.61
9861;DHT22;4969;52.304;4.968;2022-12-29T09:06:46;14.20;70.09
9861;DHT22;4969;52.304;4.968;2022-12-29T09:09:12;14.34;68.94
9861;DHT22;4969;52.304;4.968;2022-12-29T09:11:39;14.18;70.79
9861;DHT22;4969;52.304;4.968;2022-12-29T09:14:05;13.89;68.78
9861;DHT22;4969;52.304;4.968;2022-12-29T09:16:34;14.38;69.69
9861;DHT22;4969;52.304;4.968;2022-12-29T09:19:01;14.95;69.35
9861;DHT22;4969;52.304;4.968;2022-12-29T09:21:27;14.72;68.09
9861;DHT22;4969;52.304;4.968;2022-12-29T09:23:54;14.34;69.86
9861;DHT22;4969;52.304;4.968;2022-12-29T09:26:21;14.16;68.28
9861;DHT22;4969;52.304;4.968;2022-12-29T09:28:47;14.31;70.95
9861;DHT22;4969;52.304;4.968;2022-12-29T09:31:14;14.68;69.52
9861;DHT22;4969;52.304;4.968;2022-12-29T09:33:42;14.72;69.26
9861;DHT22;4969;52.304;4.968;2022-12-29T09:36:08;14.96;68.04
9861;DHT22;4969;52.304;4.968;2022-12-29T09:38:35;15.26;67.12
9861;DHT22;4969;52.304;4.968;2022-12-29T09:41:06;14.40;69.38
9861;DHT22;4969;52.304;4.968;2022-12-29T09:43:53;14.26;70.43
9861;DHT22;4969;52.304;4.968;2022-12-29T09:46:24;14.72;69.38
9861;DHT22;4969;52.304;4.968;2022-12-29T09:49:01;14.38;68.68
9861;DHT22;4969;52.304;4.968;2022-12-29T09:51:31;14.40;66.95
9861;DHT22;4969;52.304;4.968;2022-12-29T09:54:00;14.40;70.51
9861;DHT22;4969;52.304;4.968;2022-12-29T09:56:29;13.83;70.94
9861;DHT22;4969;52.304;4.968;2022-12-29T09:58:59;14.61;68.56
9861;DHT22;4969;52.304;4.968;2022-12-29T10:01:30;14.41;71.03
9861;DHT22;4969;52.304;4.968;2022-12-29T10:04:00;14.24;68.42
9861;DHT22;4969;52.304;4.968;2022-12-29T10:06:33;13.83;71.44
9861;DHT22;4969;52.304;4.968;2022-12-29T10:09:13;13.79;71.23
9861;DHT22;4969;52.304;4.968;2022-12-29T10:11:58;13.58;71.19
9861;DHT22;4969;52.304;4.968;2022-12-29T10:14:47;13.74;74.12
9861;DHT22;4969;52.304;4.968;2022-12-29T10:17:25;12.79;74.38
9861;DHT22;4969;52.304;4.968;2022-12-29T10:20:06;13.19;73.08
9861;DHT22;4969;52.304;4.968;2022-12-29T10:22:47;13.38;72.97
9861;DHT22;4969;52.304;4.968;2022-12-29T10:25:19;12.72;74.96
9861;DHT22;4969;52.304;4.968;2022-12-29T10:27:47;12.79;75.36
9861;DHT22;4969;52.304;4.968;2022-12-29T10:30:15;13.38;75.65
9861;DHT22;4969;52.304;4.968;2022-12-29T10:32:46;13.81;71.24
9861;DHT22;4969;52.304;4.968;2022-12-29T10:35:18;13.85;74.46
9861;DHT22;4969;52.304;4.968;2022-12-29T10:37:50;13.71;74.09
9861;DHT22;4969;52.304;4.968;2022-12-29T10:40:23;13.97;71.01
9861;DHT22;4969;52.304;4.968;2022-12-29T10:42:53;13.66;73.82
9861;DHT22;4969;52.304;4.968;2022-12-29T10:45:22;13.51;71.78
9861;DHT22;4969;52.304;4.968;2022-12-29T10:47:54;15.03;70.10
9861;DHT22;4969;52.304;4.968;2022-12-29T10:50:24;15.33;69.20
9861;DHT22;4969;52.304;4.968;2022-12-29T10:52:51;15.20;67.64
9861;DHT22;4969;52.304;4.968;2022-12-29T10:55:21;14.14;69.38
9861;DHT22;4969;52.304;4.968;2022-12-29T10:57:49;13.88;70.82
9861;DHT22;4969;52.304;4.968;2022-12-29T11:00:17;13.79;72.90
9861;DHT22;4969;52.304;4.968;2022-12-29T11:03:02;13.95;71.61
9861;DHT22;4969;52.304;4.968;2022-12-29T11:05:36;13.35;72.65
9861;DHT22;4969;52.304;4.968;2022-12-29T11:08:09;13.27;70.67
9861;DHT22;4969;52.304;4.968;2022-12-29T11:10:37;13.31;71.61
9861;DHT22;4969;52.304;4.968;2022-12-29T11:13:12;13.38;69.14
9861;DHT22;4969;52.304;4.968;2022-12-29T11:15:41;12.99;72.33
9861;DHT22;4969;52.304;4.968;2022-12-29T11:18:18;12.52;70.92
9861;DHT22;4969;52.304;4.968;2022-12-29T11:20:47;12.68;72.77
9861;DHT22;4969;52.304;4.968;2022-12-29T11:23:27;12.93;71.86
9861;DHT22;4969;52.304;4.968;2022-12-29T11:26:13;12.97;73.97
9861;DHT22;4969;52.304;4.968;2022-12-29T11:28:42;13.30;73.25
9861;DHT22;4969;52.304;4.968;2022-12-29T11:31:09;13.65;70.39
9861;DHT22;4969;52.304;4.968;2022-12-29T11:33:37;13.72;71.77
9861;DHT22;4969;52.304;4.968;2022-12-29T11:36:10;14.07;72.63
9861;DHT22;4969;52.304;4.968;2022-12-29T11:38:39;14.60;72.54
9861;DHT22;4969;52.304;4.968;2022-12-29T11:41:11;14.37;69.97
9861;DHT22;4969;52.304;4.968;2022-12-29T11:43:41;13.82;70.39
9861;DHT22;4969;52.304;4.968;2022-12-29T11:46:14;13.48;69.47
9861;DHT22;4969;52.304;4.968;2022-12-29T11:48:42;13.57;72.66
9861;DHT22;4969;52.304;4.968;2022-12-29T11:51:11;13.03;71.94
9861;DHT22;4969;52.304;4.968;2022-12-29T11:53:41;13.31;71.25
9861;DHT22;4969;52.304;4.968;2022-12-29T11:56:12;13.72;74.97
9861;DHT22;4969;52.304;4.968;2022-12-29T11:58:39;13.09;71.07
9861;DHT22;4969;52.304;4.968;2022-12-29T12:01:10;12.62;71.64
9861;DHT22;4969;52.304;4.968;2022-12-29T12:03:45;13.00;70.23
9861;DHT22;4969;52.304;4.968;2022-12-29T12:06:17;13.16;74.13
9861;DHT22;4969;52.304;4.968;2022-12-29T12:08:48;12.73;68.69
9861;DHT22;4969;52.304;4.968;2022-12-29T12:11:19;12.42;72.60
9861;DHT22;4969;52.304;4.968;2022-12-29T12:13:55;12.64;69.19
9861;DHT22;4969;52.304;4.968;2022-12-29T12:16:28;13.30;72.68
9861;DHT22;4969;52.304;4.968;2022-12-29T12:19:02;12.72;70.07
9861;DHT22;4969;52.304;4.968;2022-12-29T12:21:36;12.31;68.98
9861;DHT22;4969;52.304;4.968;2022-12-29T12:24:20;12.48;69.95
9861;DHT22;4969;52.304;4.968;2022-12-29T12:26:55;12.92;71.48
9861;DHT22;4969;52.304;4.968;2022-12-29T12:29:26;13.37;77.15
9861;DHT22;4969;52.304;4.968;2022-12-29T12:31:59;12.58;70.93
9861;DHT22;4969;52.304;4.968;2022-12-29T12:34:32;13.10;69.34
9861;DHT22;4969;52.304;4.968;2022-12-29T12:37:19;12.67;68.79
9861;DHT22;4969;52.304;4.968;2022-12-29T12:40:02;12.88;68.79
9861;DHT22;4969;52.304;4.968;2022-12-29T12:42:42;12.54;73.06
9861;DHT22;4969;52.304;4.968;2022-12-29T12:45:32;12.40;66.93
9861;DHT22;4969;52.304;4.968;2022-12-29T12:48:12;12.21;70.67
9861;DHT22;4969;52.304;4.968;2022-12-29T12:50:52;12.23;69.37
9861;DHT22;4969;52.304;4.968;2022-12-29T12:53:35;12.85;72.54
9861;DHT22;4969;52.304;4.968;2022-12-29T12:59:05;12.67;72.11
9861;DHT22;4969;52.304;4.968;2022-12-29T13:01:38;13.51;72.91
9861;DHT22;4969;52.304;4.968;2022-12-29T13:07:13;14.28;65.15
9861;DHT22;4969;52.304;4.968;2022-12-29T13:09:51;14.09;65.77
9861;DHT22;4969;52.304;4.968;2022-12-29T13:12:31;13.74;73.40
9861;DHT22;4969;52.304;4.968;2022-12-29T13:15:08;14.13;69.87
9861;DHT22;4969;52.304;4.968;2022-12-29T13:17:44;14.13;66.36
9861;DHT22;4969;52.304;4.968;2022-12-29T13:20:20;14.02;66.73
9861;DHT22;4969;52.304;4.968;2022-12-29T13:22:56;13.38;65.55
9861;DHT22;4969;52.304;4.968;2022-12-29T13:25:32;13.55;73.12
9861;DHT22;4969;52.304;4.968;2022-12-29T13:28:03;14.10;71.43
9861;DHT22;4969;52.304;4.968;2022-12-29T13:30:35;13.42;67.79
9861;DHT22;4969;52.304;4.968;2022-12-29T13:33:10;14.24;74.62
9861;DHT22;4969;52.304;4.968;2022-12-29T13:35:54;14.24;70.33
9861;DHT22;4969;52.304;4.968;2022-12-29T13:38:24;14.09;68.17
9861;DHT22;4969;52.304;4.968;2022-12-29T13:40:56;14.14;70.20
9861;DHT22;4969;52.304;4.968;2022-12-29T13:43:25;14.03;73.49
9861;DHT22;4969;52.304;4.968;2022-12-29T13:46:00;13.22;71.73
9861;DHT22;4969;52.304;4.968;2022-12-29T13:48:36;13.66;69.34
9861;DHT22;4969;52.304;4.968;2022-12-29T13:51:05;14.23;72.11
9861;DHT22;4969;52.304;4.968;2022-12-29T13:53:37;14.69;73.35
9861;DHT22;4969;52.304;4.968;2022-12-29T13:56:12;14.98;69.28
9861;DHT22;4969;52.304;4.968;2022-12-29T13:58:47;14.27;65.82
9861;DHT22;4969;52.304;4.968;2022-12-29T14:01:20;13.92;64.03
9861;DHT22;4969;52.304;4.968;2022-12-29T14:03:49;14.20;67.39
9861;DHT22;4969;52.304;4.968;2022-12-29T14:06:20;13.52;68.62
9861;DHT22;4969;52.304;4.968;2022-12-29T14:08:49;13.62;68.46
9861;DHT22;4969;52.304;4.968;2022-12-29T14:11:21;13.44;70.36
9861;DHT22;4969;52.304;4.968;2022-12-29T14:13:50;13.77;70.09
9861;DHT22;4969;52.304;4.968;2022-12-29T14:16:26;13.86;72.65
9861;DHT22;4969;52.304;4.968;2022-12-29T14:18:54;13.38;68.16
9861;DHT22;4969;52.304;4.968;2022-12-29T14:21:25;14.52;69.59
9861;DHT22;4969;52.304;4.968;2022-12-29T14:26:53;14.57;70.22
9861;DHT22;4969;52.304;4.968;2022-12-29T14:29:42;15.58;69.89
9861;DHT22;4969;52.304;4.968;2022-12-29T14:32:36;14.98;63.10
9861;DHT22;4969;52.304;4.968;2022-12-29T14:38:26;15.18;67.40
9861;DHT22;4969;52.304;4.968;2022-12-29T14:41:27;15.28;72.23
9861;DHT22;4969;52.304;4.968;2022-12-29T14:43:58;15.64;62.18
9861;DHT22;4969;52.304;4.968;2022-12-29T14:46:47;15.30;69.83
9861;DHT22;4969;52.304;4.968;2022-12-29T14:49:18;15.00;70.77
9861;DHT22;4969;52.304;4.968;2022-12-29T14:51:46;15.43;68.06
9861;DHT22;4969;52.304;4.968;2022-12-29T14:54:48;15.10;70.25
9861;DHT22;4969;52.304;4.968;2022-12-29T14:57:35;15.21;67.41
9861;DHT22;4969;52.304;4.968;2022-12-29T15:00:21;15.62;70.11
9861;DHT22;4969;52.304;4.968;2022-12-29T15:02:50;15.69;66.50
9861;DHT22;4969;52.304;4.968;2022-12-29T15:05:31;15.54;63.51
9861;DHT22;4969;52.304;4.968;2022-12-29T15:08:00;15.26;66.14
9861;DHT22;4969;52.304;4.968;2022-12-29T15:10:33;15.26;70.91
9861;DHT22;4969;52.304;4.968;2022-12-29T15:13:03;14.88;69.45
9861;DHT22;4969;52.304;4.968;2022-12-29T15:15:37;15.20;68.78
9861;DHT22;4969;52.304;4.968;2022-12-29T15:18:25;15.00;71.59
9861;DHT22;4969;52.304;4.968;2022-12-29T15:20:54;14.98;72.05
9861;DHT22;4969;52.304;4.968;2022-12-29T15:23:21;15.34;71.55
9861;DHT22;4969;52.304;4.968;2022-12-29T15:25:51;15.26;67.10
9861;DHT22;4969;52.304;4.968;2022-12-29T15:28:20;15.50;65.91
9861;DHT22;4969;52.304;4.968;2022-12-29T15:30:53;15.43;67.72
9861;DHT22;4969;52.304;4.968;2022-12-29T15:33:22;15.06;69.21
9861;DHT22;4969;52.304;4.968;2022-12-29T15:35:50;14.14;67.50
9861;DHT22;4969;52.304;4.968;2022-12-29T15:38:22;13.68;68.65
9861;DHT22;4969;52.304;4.968;2022-12-29T15:40:53;13.61;73.29
9861;DHT22;4969;52.304;4.968;2022-12-29T15:43:35;13.55;67.19
9861;DHT22;4969;52.304;4.968;2022-12-29T15:46:06;13.28;69.73
9861;DHT22;4969;52.304;4.968;2022-12-29T15:48:33;13.99;67.35
9861;DHT22;4969;52.304;4.968;2022-12-29T15:50:59;14.14;71.92
9861;DHT22;4969;52.304;4.968;2022-12-29T15:53:28;14.48;69.16
9861;DHT22;4969;52.304;4.968;2022-12-29T15:55:58;13.55;71.24
9861;DHT22;4969;52.304;4.968;2022-12-29T15:58:27;14.34;66.44
9861;DHT22;4969;52.304;4.968;2022-12-29T16:00:56;13.89;68.16
9861;DHT22;4969;52.304;4.968;2022-12-29T16:03:25;13.83;72.05
9861;DHT22;4969;52.304;4.968;2022-12-29T16:05:55;14.17;72.25
9861;DHT22;4969;52.304;4.968;2022-12-29T16:08:29;13.47;68.64
9861;DHT22;4969;52.304;4.968;2022-12-29T16:10:58;13.54;72.85
9861;DHT22;4969;52.304;4.968;2022-12-29T16:13:28;13.38;69.47
9861;DHT22;4969;52.304;4.968;2022-12-29T16:16:00;13.27;69.45
9861;DHT22;4969;52.304;4.968;2022-12-29T16:18:33;12.99;72.27
9861;DHT22;4969;52.304;4.968;2022-12-29T16:21:02;13.47;73.77
9861;DHT22;4969;52.304;4.968;2022-12-29T16:23:30;13.19;71.04
9861;DHT22;4969;52.304;4.968;2022-12-29T16:25:57;13.30;71.11
9861;DHT22;4969;52.304;4.968;2022-12-29T16:28:28;13.82;71.89
9861;DHT22;4969;52.304;4.968;2022-12-29T16:30:58;14.72;71.78
9861;DHT22;4969;52.304;4.968;2022-12-29T16:33:36;14.73;68.36
9861;DHT22;4969;52.304;4.968;2022-12-29T16:36:31;14.78;71.26
9861;DHT22;4969;52.304;4.968;2022-12-29T16:39:20;14.95;68.90
9861;DHT22;4969;52.304;4.968;2022-12-29T16:41:48;14.40;65.95
9861;DHT22;4969;52.304;4.968;2022-12-29T16:44:19;14.05;72.27